Time;durP1;ratioP1;P1;durP2;ratioP2;P2;SDS_P1;SDS_P2;PMS_P1;PMS_P2;Temp;Humidity;BMP_temperature;BMP_pressure;BME280_temperature;BME280_humidity;BME280_pressure;Samples;Min_cycle;Max_cycle;Signal;HPM_P1;HPM_P2
2022/10/30 00:00:55;;;;;;;5.85;5.20;;;10.00;99.90;;;;;;4215197;28;20094;-87
2022/10/30 00:03:16;;;;;;;4.82;4.60;;;10.00;99.90;;;;;;4230262;28;20373;-85
2022/10/30 00:05:41;;;;;;;3.65;3.35;;;10.00;99.90;;;;;;4228025;28;20301;-87
2022/10/30 00:08:00;;;;;;;8.32;5.13;;;9.90;99.90;;;;;;4221568;28;20043;-87
2022/10/30 00:10:21;;;;;;;6.43;5.78;;;9.70;99.90;;;;;;4226457;28;20361;-86
2022/10/30 00:12:42;;;;;;;6.75;6.30;;;9.50;99.90;;;;;;4229310;28;20449;-86
2022/10/30 00:15:01;;;;;;;7.13;6.65;;;9.40;99.90;;;;;;4219823;28;20052;-87
2022/10/30 00:17:21;;;;;;;6.43;6.22;;;9.30;99.90;;;;;;4229879;28;20046;-87
2022/10/30 00:19:42;;;;;;;6.32;6.05;;;9.20;99.90;;;;;;4232529;28;20459;-86
2022/10/30 00:22:03;;;;;;;8.73;6.93;;;9.10;99.90;;;;;;4229306;28;20146;-87
2022/10/30 00:24:23;;;;;;;6.20;5.82;;;9.00;99.90;;;;;;4233571;28;20320;-87
2022/10/30 00:26:43;;;;;;;6.95;6.20;;;9.00;99.90;;;;;;4235621;28;20115;-87
2022/10/30 00:29:02;;;;;;;6.32;6.03;;;9.00;99.90;;;;;;4232156;28;20066;-88
2022/10/30 00:31:22;;;;;;;6.57;6.38;;;9.00;99.90;;;;;;4228548;28;20051;-86
2022/10/30 00:33:42;;;;;;;6.50;6.07;;;9.10;99.90;;;;;;4227148;28;20042;-87
2022/10/30 00:36:03;;;;;;;6.40;5.90;;;9.00;99.90;;;;;;4229309;28;20231;-87
2022/10/30 00:38:23;;;;;;;6.55;6.30;;;9.00;99.90;;;;;;4218514;28;20085;-87
2022/10/30 00:40:42;;;;;;;5.65;5.43;;;8.90;99.90;;;;;;4228462;28;20043;-86
2022/10/30 00:43:02;;;;;;;6.85;6.43;;;9.00;99.90;;;;;;4218835;28;20043;-87
2022/10/30 00:45:22;;;;;;;5.95;5.72;;;8.90;99.90;;;;;;4225731;28;20093;-87
2022/10/30 00:47:52;;;;;;;6.45;5.95;;;9.00;99.90;;;;;;4232972;28;20084;-87
2022/10/30 00:50:26;;;;;;;5.03;4.93;;;9.00;99.90;;;;;;4222410;28;20417;-87
2022/10/30 00:52:59;;;;;;;5.40;5.03;;;9.10;99.90;;;;;;4224752;28;20050;-87
2022/10/30 00:55:32;;;;;;;4.22;4.13;;;9.20;99.90;;;;;;4219752;28;20086;-87
2022/10/30 00:57:53;;;;;;;5.28;4.80;;;9.30;99.90;;;;;;4230710;28;20043;-87
2022/10/30 01:00:14;;;;;;;4.95;4.53;;;9.30;99.90;;;;;;4216798;28;20085;-87
2022/10/30 01:02:34;;;;;;;4.70;4.60;;;9.30;99.90;;;;;;4217956;28;20091;-87
2022/10/30 01:04:54;;;;;;;3.92;3.75;;;9.30;99.90;;;;;;4230092;28;20051;-87
2022/10/30 01:07:15;;;;;;;4.13;3.83;;;9.30;99.90;;;;;;4223630;28;20063;-86
2022/10/30 01:09:38;;;;;;;4.60;4.40;;;9.30;99.90;;;;;;4215955;28;20055;-87
2022/10/30 01:11:58;;;;;;;5.63;5.18;;;9.30;99.90;;;;;;4220538;28;20054;-87
2022/10/30 01:14:20;;;;;;;5.95;5.40;;;9.30;99.90;;;;;;4227937;28;20059;-87
2022/10/30 01:16:58;;;;;;;6.25;5.95;;;9.20;99.90;;;;;;4217801;28;20055;-87
2022/10/30 01:19:33;;;;;;;5.93;5.72;;;9.10;99.90;;;;;;4214203;28;20051;-87
2022/10/30 01:22:05;;;;;;;6.03;5.55;;;9.10;99.90;;;;;;4230791;28;20404;-87
2022/10/30 01:24:33;;;;;;;6.07;5.57;;;9.00;99.90;;;;;;4233457;28;20086;-87
2022/10/30 01:27:04;;;;;;;6.90;6.45;;;8.80;99.90;;;;;;4230249;28;20047;-87
2022/10/30 01:29:55;;;;;;;5.25;5.05;;;8.80;99.90;;;;;;4218528;28;20050;-88
2022/10/30 01:32:39;;;;;;;5.35;4.95;;;8.80;99.90;;;;;;4228416;28;20154;-87
2022/10/30 01:34:59;;;;;;;;;;;8.80;99.90;;;;;;4223816;28;20122;-86
2022/10/30 01:37:31;;;;;;;5.25;5.05;;;8.90;99.90;;;;;;4229922;28;19962;-87
2022/10/30 01:39:52;;;;;;;5.95;5.45;;;8.90;99.90;;;;;;4218814;28;20050;-87
2022/10/30 01:42:49;;;;;;;5.22;5.05;;;8.90;99.90;;;;;;4224103;28;20118;-87
2022/10/30 01:45:22;;;;;;;5.15;4.88;;;8.70;99.90;;;;;;4215017;28;20055;-87
2022/10/30 01:47:45;;;;;;;;;;;8.70;99.90;;;;;;4234292;28;20081;-87
2022/10/30 01:50:49;;;;;;;6.00;5.53;;;8.60;99.90;;;;;;4218882;28;19930;-87
2022/10/30 01:53:21;;;;;;;5.70;5.28;;;8.50;99.90;;;;;;4211892;28;20056;-87
2022/10/30 01:55:46;;;;;;;5.10;4.22;;;8.40;99.90;;;;;;4225761;28;20094;-87
2022/10/30 01:58:18;;;;;;;5.25;4.95;;;8.30;99.90;;;;;;4228473;28;20047;-87
2022/10/30 02:00:41;;;;;;;6.13;5.60;;;8.30;99.90;;;;;;4230424;28;20377;-87
2022/10/30 02:03:00;;;;;;;5.82;5.57;;;8.30;99.90;;;;;;4226548;28;20047;-87
2022/10/30 02:05:36;;;;;;;5.85;5.55;;;8.40;99.90;;;;;;4231790;28;20246;-87
2022/10/30 02:07:55;;;;;;;7.55;5.97;;;8.40;99.90;;;;;;4225367;28;20046;-87
2022/10/30 02:10:16;;;;;;;5.38;5.03;;;8.50;99.90;;;;;;4217952;28;20051;-87
2022/10/30 02:12:37;;;;;;;5.15;4.85;;;8.40;99.90;;;;;;4228569;28;20046;-87
2022/10/30 02:14:59;;;;;;;5.65;5.22;;;8.40;99.90;;;;;;4225131;28;20042;-87
2022/10/30 02:17:20;;;;;;;6.90;6.47;;;8.40;99.90;;;;;;4216002;28;20062;-87
2022/10/30 02:19:40;;;;;;;6.18;5.68;;;8.40;99.90;;;;;;4225085;28;20047;-87
2022/10/30 02:22:00;;;;;;;5.85;5.45;;;8.40;99.90;;;;;;4229297;28;20078;-87
2022/10/30 02:24:20;;;;;;;5.15;5.03;;;8.40;99.90;;;;;;4223716;28;20073;-87
2022/10/30 02:26:40;;;;;;;6.65;6.13;;;8.40;99.90;;;;;;4216373;28;20051;-88
2022/10/30 02:28:59;;;;;;;6.38;6.07;;;8.40;99.90;;;;;;4232454;28;20108;-87
2022/10/30 02:31:19;;;;;;;8.73;5.32;;;8.30;99.90;;;;;;4234250;28;20038;-87
2022/10/30 02:33:44;;;;;;;6.03;5.40;;;8.30;99.90;;;;;;4214420;28;20070;-86
2022/10/30 02:36:04;;;;;;;5.00;4.80;;;8.10;99.90;;;;;;4221081;28;20095;-87
2022/10/30 02:38:24;;;;;;;5.82;5.30;;;8.20;99.90;;;;;;4229025;28;20239;-87
2022/10/30 02:40:43;;;;;;;4.82;4.60;;;8.10;99.90;;;;;;4223438;28;20237;-87
2022/10/30 02:43:04;;;;;;;5.40;5.03;;;8.10;99.90;;;;;;4224637;28;20089;-87
2022/10/30 02:45:23;;;;;;;5.25;4.95;;;8.10;99.90;;;;;;4230076;28;20111;-87
2022/10/30 02:47:43;;;;;;;5.40;4.93;;;8.10;99.90;;;;;;4223308;28;20291;-88
2022/10/30 02:50:03;;;;;;;4.07;3.88;;;8.10;99.90;;;;;;4227900;28;20108;-87
2022/10/30 02:52:23;;;;;;;3.95;3.72;;;8.20;99.90;;;;;;4228914;28;20051;-87
2022/10/30 02:54:42;;;;;;;4.65;4.38;;;8.20;99.90;;;;;;4210624;28;20051;-87
2022/10/30 02:57:02;;;;;;;5.18;4.88;;;8.20;99.90;;;;;;4226093;28;20073;-87
2022/10/30 02:59:22;;;;;;;5.05;4.72;;;8.20;99.90;;;;;;4224741;28;20055;-87
2022/10/30 03:01:42;;;;;;;6.00;4.68;;;8.20;99.90;;;;;;4214058;28;20043;-87
2022/10/30 03:04:02;;;;;;;4.70;4.22;;;8.10;99.90;;;;;;4222978;28;20188;-87
2022/10/30 03:06:22;;;;;;;6.00;5.57;;;8.00;99.90;;;;;;4233535;28;20085;-87
2022/10/30 03:08:43;;;;;;;6.50;5.95;;;7.90;99.90;;;;;;4226717;28;20247;-87
2022/10/30 03:11:06;;;;;;;5.70;5.50;;;7.90;99.90;;;;;;4218896;28;20074;-87
2022/10/30 03:13:26;;;;;;;;;;;7.80;99.90;;;;;;4229156;28;20051;-87
2022/10/30 03:15:46;;;;;;;6.57;6.15;;;7.90;99.90;;;;;;4222366;28;20001;-87
2022/10/30 03:18:06;;;;;;;5.78;5.22;;;7.90;99.90;;;;;;4226704;28;20046;-88
2022/10/30 03:20:26;;;;;;;9.20;6.15;;;7.80;99.90;;;;;;4226120;28;20093;-86
2022/10/30 03:22:46;;;;;;;5.78;4.95;;;7.80;99.90;;;;;;4222423;28;20401;-87
2022/10/30 03:25:06;;;;;;;6.30;6.10;;;7.70;99.90;;;;;;4223663;28;20093;-88
2022/10/30 03:27:26;;;;;;;6.40;6.10;;;7.70;99.90;;;;;;4230349;28;20115;-87
2022/10/30 03:29:46;;;;;;;8.07;6.20;;;7.60;99.90;;;;;;4219521;28;20055;-87
2022/10/30 03:32:10;;;;;;;4.90;4.65;;;7.60;99.90;;;;;;4228200;28;20388;-87
2022/10/30 03:34:30;;;;;;;4.80;4.57;;;7.60;99.90;;;;;;4225044;28;20075;-88
2022/10/30 03:36:50;;;;;;;5.85;5.32;;;7.60;99.90;;;;;;4223363;28;20051;-87
2022/10/30 03:39:10;;;;;;;5.20;4.85;;;7.60;99.90;;;;;;4211778;28;20060;-87
2022/10/30 03:41:30;;;;;;;4.60;4.30;;;7.70;99.90;;;;;;4229478;28;20047;-87
2022/10/30 03:43:50;;;;;;;4.53;4.13;;;7.70;99.90;;;;;;4224395;28;20078;-87
2022/10/30 03:46:10;;;;;;;5.57;5.05;;;7.70;99.90;;;;;;4219911;28;20094;-88
2022/10/30 03:48:30;;;;;;;5.35;5.07;;;7.70;99.90;;;;;;4230882;28;20082;-88
2022/10/30 03:50:55;;;;;;;6.15;5.75;;;7.70;99.90;;;;;;4228165;28;20039;-87
2022/10/30 03:53:15;;;;;;;5.72;5.53;;;7.60;99.90;;;;;;4232226;28;20047;-87
2022/10/30 03:55:36;;;;;;;4.75;4.60;;;7.60;99.90;;;;;;4223233;28;20054;-87
2022/10/30 03:57:56;;;;;;;5.30;5.07;;;7.70;99.90;;;;;;4209960;28;20043;-87
2022/10/30 04:00:17;;;;;;;5.50;5.25;;;7.70;99.90;;;;;;4227317;28;20074;-87
2022/10/30 04:02:37;;;;;;;6.65;6.00;;;7.70;99.90;;;;;;4218705;28;20074;-87
2022/10/30 04:04:57;;;;;;;6.70;6.28;;;7.70;99.90;;;;;;4232161;28;20047;-88
2022/10/30 04:07:17;;;;;;;5.72;5.53;;;7.60;99.90;;;;;;4227660;28;20050;-88
2022/10/30 04:09:36;;;;;;;4.57;4.28;;;7.50;99.90;;;;;;4218079;28;20094;-88
2022/10/30 04:11:56;;;;;;;7.28;6.53;;;7.40;99.90;;;;;;4236140;28;20070;-87
2022/10/30 04:14:16;;;;;;;6.03;5.93;;;7.40;99.90;;;;;;4222895;28;20098;-87
2022/10/30 04:16:35;;;;;;;5.97;5.63;;;7.40;99.90;;;;;;4213468;28;20278;-87
2022/10/30 04:18:55;;;;;;;5.05;4.70;;;7.30;99.90;;;;;;4217128;28;20127;-87
2022/10/30 04:21:14;;;;;;;4.18;3.88;;;7.30;99.90;;;;;;4220951;28;20047;-88
2022/10/30 04:23:34;;;;;;;4.63;4.53;;;7.30;99.90;;;;;;4229692;28;20365;-88
2022/10/30 04:25:54;;;;;;;7.07;6.10;;;7.30;99.90;;;;;;4225012;28;20055;-86
2022/10/30 04:28:14;;;;;;;4.93;4.38;;;7.30;99.90;;;;;;4231805;28;20047;-86
2022/10/30 04:30:35;;;;;;;6.28;6.07;;;7.20;99.90;;;;;;4229181;28;20059;-87
2022/10/30 04:32:56;;;;;;;6.03;5.70;;;7.20;99.90;;;;;;4217103;28;20047;-88
2022/10/30 04:35:19;;;;;;;5.57;5.38;;;7.30;99.90;;;;;;4218723;28;20042;-87
2022/10/30 04:37:39;;;;;;;5.13;4.68;;;7.20;99.90;;;;;;4224255;28;20051;-87
2022/10/30 04:39:59;;;;;;;5.25;5.15;;;7.20;99.90;;;;;;4226083;28;20382;-88
2022/10/30 04:42:19;;;;;;;5.10;5.00;;;7.30;99.90;;;;;;4211879;28;20051;-88
2022/10/30 04:44:38;;;;;;;4.18;4.07;;;7.30;99.90;;;;;;4228086;28;20406;-88
2022/10/30 04:46:58;;;;;;;5.07;4.80;;;7.30;99.90;;;;;;4232309;28;20076;-88
2022/10/30 04:49:18;;;;;;;3.58;3.55;;;7.30;99.90;;;;;;4228068;28;20418;-88
2022/10/30 04:51:38;;;;;;;6.30;5.88;;;7.30;99.90;;;;;;4230484;28;20377;-89
2022/10/30 04:53:57;;;;;;;5.53;5.35;;;7.40;99.90;;;;;;4216119;28;20052;-88
2022/10/30 04:56:17;;;;;;;6.13;5.93;;;7.40;99.90;;;;;;4222870;28;20385;-87
2022/10/30 04:58:37;;;;;;;6.13;5.72;;;7.40;99.90;;;;;;4224758;28;20251;-87
2022/10/30 05:01:01;;;;;;;5.28;4.95;;;7.30;99.90;;;;;;4226687;28;20105;-87
2022/10/30 05:03:23;;;;;;;4.97;4.78;;;7.30;99.90;;;;;;4231228;28;20089;-87
2022/10/30 05:05:43;;;;;;;5.15;4.75;;;7.30;99.90;;;;;;4216038;28;20129;-88
2022/10/30 05:08:04;;;;;;;4.05;3.85;;;7.30;99.90;;;;;;4231881;28;20081;-88
2022/10/30 05:10:24;;;;;;;4.05;3.95;;;7.30;99.90;;;;;;4216754;28;20047;-87
2022/10/30 05:12:44;;;;;;;3.90;3.80;;;7.40;99.90;;;;;;4230046;28;20054;-88
2022/10/30 05:15:05;;;;;;;3.72;2.92;;;7.40;99.90;;;;;;4218840;28;20120;-87
2022/10/30 05:17:24;;;;;;;3.40;3.40;;;7.30;99.90;;;;;;4221742;28;20058;-87
2022/10/30 05:19:44;;;;;;;4.47;4.38;;;7.30;99.90;;;;;;4212843;28;20079;-88
2022/10/30 05:22:04;;;;;;;4.53;4.43;;;7.20;99.90;;;;;;4226175;28;20086;-87
2022/10/30 05:24:23;;;;;;;4.93;4.63;;;7.10;99.90;;;;;;4225634;28;20105;-88
2022/10/30 05:26:43;;;;;;;7.00;5.55;;;7.00;99.90;;;;;;4221564;28;20051;-87
2022/10/30 05:29:04;;;;;;;10.73;7.13;;;7.00;99.90;;;;;;4223147;28;20291;-88
2022/10/30 05:31:24;;;;;;;7.15;6.50;;;6.90;99.90;;;;;;4217713;28;20401;-88
2022/10/30 05:33:44;;;;;;;6.57;6.20;;;6.80;99.90;;;;;;4235660;28;20079;-88
2022/10/30 05:36:04;;;;;;;6.13;5.97;;;6.70;99.90;;;;;;4224763;28;20086;-88
2022/10/30 05:38:24;;;;;;;8.10;7.47;;;6.70;99.90;;;;;;4223231;28;20269;-87
2022/10/30 05:40:45;;;;;;;4.68;4.38;;;6.60;99.90;;;;;;4226582;28;20055;-88
2022/10/30 05:43:06;;;;;;;5.30;5.07;;;6.60;99.90;;;;;;4227239;28;20059;-87
2022/10/30 05:45:26;;;;;;;11.00;5.32;;;6.60;99.90;;;;;;4233019;28;20130;-88
2022/10/30 05:48:04;;;;;;;6.68;5.38;;;6.60;99.90;;;;;;4224615;28;20062;-88
2022/10/30 05:50:25;;;;;;;7.75;5.30;;;6.50;99.90;;;;;;4216469;28;20054;-88
2022/10/30 05:52:45;;;;;;;5.25;4.90;;;6.60;99.90;;;;;;4216616;28;20047;-88
2022/10/30 05:55:05;;;;;;;5.43;5.22;;;6.60;99.90;;;;;;4227987;28;20257;-88
2022/10/30 05:57:31;;;;;;;6.53;5.20;;;6.60;99.90;;;;;;4229254;28;20418;-87
2022/10/30 05:59:51;;;;;;;4.47;4.22;;;6.70;99.90;;;;;;4228728;28;20047;-88
2022/10/30 06:02:10;;;;;;;4.70;4.60;;;6.70;99.90;;;;;;4223415;28;20055;-87
2022/10/30 06:04:31;;;;;;;4.60;4.50;;;6.80;99.90;;;;;;4224306;28;20057;-87
2022/10/30 06:06:50;;;;;;;4.70;4.57;;;6.80;99.90;;;;;;4218880;28;20043;-87
2022/10/30 06:09:10;;;;;;;3.45;3.28;;;6.90;99.90;;;;;;4231656;28;20403;-87
2022/10/30 06:11:30;;;;;;;3.38;3.28;;;6.90;99.90;;;;;;4224453;28;20051;-87
2022/10/30 06:13:49;;;;;;;3.35;3.25;;;7.00;99.90;;;;;;4231622;28;20050;-87
2022/10/30 06:16:09;;;;;;;4.35;4.25;;;7.00;99.90;;;;;;4225544;28;20043;-87
2022/10/30 06:18:29;;;;;;;5.75;5.47;;;6.90;99.90;;;;;;4229095;28;20069;-87
2022/10/30 06:20:49;;;;;;;4.70;4.60;;;6.90;99.90;;;;;;4218331;28;20306;-87
2022/10/30 06:23:10;;;;;;;5.45;4.65;;;6.80;99.90;;;;;;4218060;28;20051;-87
2022/10/30 06:25:31;;;;;;;7.05;6.68;;;6.70;99.90;;;;;;4223390;28;20123;-88
2022/10/30 06:27:57;;;;;;;5.35;5.15;;;6.70;99.90;;;;;;4233222;28;20046;-87
2022/10/30 06:30:18;;;;;;;5.57;5.32;;;6.70;99.90;;;;;;4226780;28;20112;-87
2022/10/30 06:32:38;;;;;;;4.43;4.32;;;6.90;99.90;;;;;;4218672;28;20068;-87
2022/10/30 06:34:58;;;;;;;3.30;3.20;;;7.00;99.90;;;;;;4233263;28;20058;-87
2022/10/30 06:37:17;;;;;;;4.57;4.25;;;7.10;99.90;;;;;;4223282;28;20111;-88
2022/10/30 06:39:38;;;;;;;3.95;3.85;;;7.10;99.90;;;;;;4227282;28;20158;-87
2022/10/30 06:41:58;;;;;;;3.28;3.13;;;7.00;99.90;;;;;;4217536;28;20073;-87
2022/10/30 06:44:18;;;;;;;4.55;4.45;;;7.20;99.90;;;;;;4220819;28;20087;-87
2022/10/30 06:46:38;;;;;;;3.22;3.13;;;7.30;99.90;;;;;;4229249;28;20058;-88
2022/10/30 06:48:58;;;;;;;3.75;3.65;;;7.30;99.90;;;;;;4230772;28;20043;-87
2022/10/30 06:51:18;;;;;;;4.45;4.15;;;7.30;99.90;;;;;;4221085;28;20448;-87
2022/10/30 06:53:38;;;;;;;3.88;3.58;;;7.30;99.90;;;;;;4222856;28;20067;-86
2022/10/30 06:56:03;;;;;;;3.78;3.58;;;7.50;99.90;;;;;;4211851;28;20397;-87
2022/10/30 06:58:24;;;;;;;4.95;4.65;;;7.60;99.90;;;;;;4226886;28;20047;-87
2022/10/30 07:00:44;;;;;;;5.57;5.13;;;7.70;99.90;;;;;;4219615;28;20043;-87
2022/10/30 07:03:06;;;;;;;3.92;3.80;;;7.80;99.90;;;;;;4216541;28;20116;-86
2022/10/30 07:05:26;;;;;;;3.85;3.50;;;8.00;99.90;;;;;;4224551;28;20084;-87
2022/10/30 07:07:46;;;;;;;3.63;3.53;;;8.10;99.90;;;;;;4231396;28;20089;-86
2022/10/30 07:10:06;;;;;;;3.40;3.30;;;8.10;99.90;;;;;;4233671;28;20078;-86
2022/10/30 07:12:26;;;;;;;3.55;3.45;;;8.10;99.90;;;;;;4223110;28;20055;-86
2022/10/30 07:14:46;;;;;;;4.85;4.43;;;8.10;99.90;;;;;;4234736;28;20082;-87
2022/10/30 07:17:06;;;;;;;5.18;4.85;;;8.10;99.90;;;;;;4219044;28;20381;-88
2022/10/30 07:19:26;;;;;;;5.18;5.03;;;8.20;99.90;;;;;;4220992;28;20194;-87
2022/10/30 07:21:45;;;;;;;5.03;4.90;;;8.30;99.90;;;;;;4215169;28;20078;-86
2022/10/30 07:24:05;;;;;;;4.50;4.30;;;8.40;99.90;;;;;;4230647;28;20110;-87
2022/10/30 07:26:25;;;;;;;3.53;2.25;;;8.50;99.90;;;;;;4216543;28;20052;-87
2022/10/30 07:28:45;;;;;;;2.60;2.47;;;8.60;99.90;;;;;;4217442;28;20083;-87
2022/10/30 07:31:05;;;;;;;3.50;3.20;;;8.80;99.90;;;;;;4229946;28;20061;-87
2022/10/30 07:33:26;;;;;;;4.18;2.63;;;8.90;99.90;;;;;;4230568;28;20058;-88
2022/10/30 07:35:45;;;;;;;2.90;2.80;;;9.10;99.90;;;;;;4230023;28;20078;-87
2022/10/30 07:38:09;;;;;;;2.22;2.22;;;9.30;99.90;;;;;;4228741;28;20054;-87
2022/10/30 07:40:30;;;;;;;2.60;2.40;;;9.50;99.90;;;;;;4212908;28;20046;-87
2022/10/30 07:42:55;;;;;;;1.50;1.50;;;9.60;99.90;;;;;;4229466;28;20040;-87
2022/10/30 07:45:16;;;;;;;1.90;1.90;;;9.70;99.90;;;;;;4227694;28;20038;-87
2022/10/30 07:47:42;;;;;;;1.40;1.40;;;9.80;99.90;;;;;;4215052;28;20361;-87
2022/10/30 07:50:02;;;;;;;2.47;1.58;;;9.90;99.90;;;;;;4229290;28;20226;-87
2022/10/30 07:52:22;;;;;;;2.28;1.67;;;9.90;99.90;;;;;;4226528;28;20334;-86
2022/10/30 07:54:42;;;;;;;2.42;1.50;;;10.00;99.90;;;;;;4227162;28;20090;-86
2022/10/30 07:57:02;;;;;;;2.90;2.03;;;10.10;99.90;;;;;;4227293;28;20054;-86
2022/10/30 07:59:21;;;;;;;1.70;1.70;;;10.20;99.90;;;;;;4230484;28;20047;-86
2022/10/30 08:01:41;;;;;;;1.63;1.63;;;10.30;99.90;;;;;;4216431;28;20035;-86
2022/10/30 08:04:01;;;;;;;1.73;1.67;;;10.40;99.90;;;;;;4219917;28;20420;-83
2022/10/30 08:06:21;;;;;;;2.25;1.45;;;10.40;99.90;;;;;;4230950;28;20100;-85
2022/10/30 08:08:46;;;;;;;1.85;1.50;;;10.50;99.90;;;;;;4228942;28;20389;-87
2022/10/30 08:11:06;;;;;;;1.48;1.48;;;10.70;99.90;;;;;;4217054;28;20346;-87
2022/10/30 08:13:26;;;;;;;1.85;1.75;;;10.70;99.90;;;;;;4230562;28;20085;-87
2022/10/30 08:15:47;;;;;;;1.60;1.60;;;10.80;99.90;;;;;;4213819;28;20108;-86
2022/10/30 08:18:07;;;;;;;1.70;1.60;;;10.80;99.90;;;;;;4213696;28;20408;-88
2022/10/30 08:20:27;;;;;;;3.33;3.10;;;10.90;99.90;;;;;;4225794;28;20381;-87
2022/10/30 08:22:52;;;;;;;1.60;1.60;;;11.00;99.90;;;;;;4228328;28;20073;-87
2022/10/30 08:25:11;;;;;;;3.70;1.88;;;11.00;99.90;;;;;;4229859;28;20063;-87
2022/10/30 08:27:31;;;;;;;1.88;1.88;;;11.10;99.90;;;;;;4228885;28;20047;-87
2022/10/30 08:29:51;;;;;;;1.90;1.83;;;11.20;99.90;;;;;;4228719;28;20055;-87
2022/10/30 08:32:11;;;;;;;1.58;1.48;;;11.30;99.90;;;;;;4230168;28;20084;-87
2022/10/30 08:34:31;;;;;;;2.20;2.13;;;11.40;99.90;;;;;;4229644;28;20050;-87
2022/10/30 08:36:51;;;;;;;2.30;2.25;;;11.50;99.90;;;;;;4231848;28;20119;-87
2022/10/30 08:39:11;;;;;;;1.90;1.90;;;11.60;99.90;;;;;;4226437;28;20284;-87
2022/10/30 08:41:30;;;;;;;4.65;1.52;;;11.70;99.90;;;;;;4218913;28;20278;-87
2022/10/30 08:43:50;;;;;;;1.45;1.45;;;11.80;99.90;;;;;;4232383;28;20105;-87
2022/10/30 08:46:10;;;;;;;1.67;1.67;;;11.90;99.90;;;;;;4219143;28;20059;-87
2022/10/30 08:48:31;;;;;;;1.77;1.65;;;12.00;99.90;;;;;;4224092;28;20140;-87
2022/10/30 08:50:51;;;;;;;1.60;1.33;;;12.20;99.90;;;;;;4230885;28;20043;-87
2022/10/30 08:53:13;;;;;;;1.30;1.30;;;12.30;99.90;;;;;;4228534;28;20115;-87
2022/10/30 08:55:33;;;;;;;1.50;1.50;;;12.40;99.90;;;;;;4216748;28;20119;-87
2022/10/30 08:57:53;;;;;;;2.88;1.58;;;12.50;99.90;;;;;;4230617;28;20043;-87
2022/10/30 09:00:13;;;;;;;1.90;1.80;;;12.60;99.90;;;;;;4230407;28;20047;-86
2022/10/30 09:02:35;;;;;;;2.15;1.20;;;12.70;99.90;;;;;;4223312;28;20039;-86
2022/10/30 09:04:55;;;;;;;2.00;1.38;;;12.90;99.90;;;;;;4232918;28;20250;-86
2022/10/30 09:07:16;;;;;;;2.65;1.65;;;13.00;99.90;;;;;;4218310;28;20382;-87
2022/10/30 09:09:36;;;;;;;2.15;1.40;;;13.10;99.90;;;;;;4229707;28;20058;-86
2022/10/30 09:11:56;;;;;;;3.47;1.27;;;13.30;99.90;;;;;;4223464;28;20051;-88
2022/10/30 09:14:16;;;;;;;1.45;1.40;;;13.40;99.90;;;;;;4231536;28;20055;-87
2022/10/30 09:16:36;;;;;;;1.75;1.20;;;13.60;99.90;;;;;;4229274;28;20322;-87
2022/10/30 09:18:56;;;;;;;1.00;1.00;;;13.70;99.90;;;;;;4222926;28;20059;-87
2022/10/30 09:21:15;;;;;;;1.17;1.17;;;13.90;99.90;;;;;;4215301;28;20047;-87
2022/10/30 09:23:35;;;;;;;1.00;1.00;;;14.10;99.90;;;;;;4219301;28;20194;-87
2022/10/30 09:25:58;;;;;;;1.58;1.20;;;14.20;99.90;;;;;;4224399;28;20087;-87
2022/10/30 09:28:18;;;;;;;1.00;1.00;;;14.40;99.90;;;;;;4229391;28;20361;-87
2022/10/30 09:30:37;;;;;;;1.10;1.10;;;14.60;99.90;;;;;;4222104;28;20058;-88
2022/10/30 09:32:59;;;;;;;0.90;0.90;;;14.80;99.90;;;;;;4229402;28;20054;-87
2022/10/30 09:35:19;;;;;;;2.67;1.00;;;14.90;99.90;;;;;;4217807;28;20127;-88
2022/10/30 09:37:39;;;;;;;1.95;1.00;;;15.10;99.90;;;;;;4231631;28;20408;-87
2022/10/30 09:39:59;;;;;;;1.00;1.00;;;15.30;99.90;;;;;;4232228;28;20085;-87
2022/10/30 09:42:27;;;;;;;0.90;0.90;;;15.60;99.90;;;;;;4219306;28;20043;-88
2022/10/30 09:45:36;;;;;;;1.00;1.00;;;15.80;99.90;;;;;;4222892;28;20039;-87
2022/10/30 09:48:32;;;;;;;1.00;1.00;;;16.10;99.90;;;;;;4175655;28;20035;-87
2022/10/30 09:51:25;;;;;;;1.80;0.90;;;16.40;99.90;;;;;;4159717;28;20045;-87
2022/10/30 09:54:04;;;;;;;1.05;0.93;;;16.70;99.90;;;;;;4216306;28;20071;-87
2022/10/30 09:56:42;;;;;;;0.95;0.95;;;16.90;99.90;;;;;;4231734;28;20039;-87
2022/10/30 09:59:31;;;;;;;1.00;1.00;;;17.20;99.90;;;;;;4224086;28;20055;-87
2022/10/30 10:02:16;;;;;;;1.10;0.90;;;17.40;99.90;;;;;;4223785;28;20043;-88
2022/10/30 10:05:14;;;;;;;1.23;0.93;;;17.70;99.90;;;;;;4226384;28;20035;-87
2022/10/30 10:07:57;;;;;;;2.40;1.00;;;18.00;99.90;;;;;;4210059;28;20055;-87
2022/10/30 10:10:28;;;;;;;1.08;0.90;;;18.30;99.90;;;;;;4225043;28;20274;-87
2022/10/30 10:12:53;;;;;;;1.27;1.10;;;18.50;99.90;;;;;;4215696;28;20070;-86
2022/10/30 10:15:39;;;;;;;2.40;1.00;;;18.90;99.90;;;;;;4229128;28;20038;-87
2022/10/30 10:18:01;;;;;;;1.00;1.00;;;19.20;99.90;;;;;;4217359;28;20332;-86
2022/10/30 10:20:40;;;;;;;0.80;0.80;;;19.40;99.90;;;;;;4221204;28;20051;-87
2022/10/30 10:23:11;;;;;;;1.05;1.05;;;19.60;99.90;;;;;;4215014;28;20047;-86
2022/10/30 10:25:31;;;;;;;0.90;0.90;;;19.80;99.90;;;;;;4228405;28;20067;-87
2022/10/30 10:28:03;;;;;;;3.75;1.48;;;20.20;99.90;;;;;;4218947;28;20231;-87
2022/10/30 10:30:24;;;;;;;0.95;0.88;;;20.40;99.90;;;;;;4230252;28;20265;-87
2022/10/30 10:32:59;;;;;;;1.30;0.95;;;20.70;99.90;;;;;;4216792;28;20046;-87
2022/10/30 10:35:35;;;;;;;1.17;0.90;;;20.90;99.90;;;;;;4224510;28;20119;-87
2022/10/30 10:38:13;;;;;;;1.20;1.10;;;21.30;99.90;;;;;;4216049;28;20094;-86
2022/10/30 10:40:46;;;;;;;2.75;0.80;;;21.30;99.90;;;;;;4218464;28;20051;-87
2022/10/30 10:43:34;;;;;;;1.30;0.90;;;21.90;99.90;;;;;;4230655;28;20042;-88
2022/10/30 10:46:19;;;;;;;0.90;0.90;;;22.30;99.90;;;;;;4230596;28;20043;-85
2022/10/30 10:48:51;;;;;;;1.73;1.00;;;22.70;97.80;;;;;;4213883;28;20064;-84
2022/10/30 10:51:29;;;;;;;1.23;0.90;;;22.70;97.40;;;;;;4218458;28;20055;-84
2022/10/30 10:54:02;;;;;;;0.80;0.80;;;22.60;97.20;;;;;;4230712;28;20366;-87
2022/10/30 10:56:30;;;;;;;1.98;0.80;;;22.90;97.30;;;;;;4216772;28;20239;-87
2022/10/30 10:58:55;;;;;;;1.85;1.08;;;23.20;96.50;;;;;;4222339;28;20095;-87
2022/10/30 11:01:26;;;;;;;5.28;1.15;;;23.60;99.00;;;;;;4225484;28;20043;-87
2022/10/30 11:04:28;;;;;;;1.05;0.75;;;24.10;98.30;;;;;;4215389;28;20072;-87
2022/10/30 11:06:51;;;;;;;1.75;0.63;;;24.50;95.70;;;;;;4214650;28;20250;-87
2022/10/30 11:09:20;;;;;;;1.00;0.60;;;24.30;92.00;;;;;;4219237;28;20051;-85
2022/10/30 11:11:40;;;;;;;7.03;0.80;;;24.10;94.50;;;;;;4230036;28;20107;-85
2022/10/30 11:13:59;;;;;;;1.63;0.90;;;24.00;92.90;;;;;;4229662;28;20084;-85
2022/10/30 11:16:50;;;;;;;0.70;0.70;;;24.60;96.00;;;;;;4217575;28;20085;-85
2022/10/30 11:19:10;;;;;;;6.53;0.70;;;24.50;95.20;;;;;;4227965;28;20047;-85
2022/10/30 11:21:44;;;;;;;0.60;0.60;;;24.90;95.60;;;;;;4221813;28;20047;-84
2022/10/30 11:24:33;;;;;;;0.77;0.60;;;24.80;95.10;;;;;;4221767;28;20227;-87
2022/10/30 11:27:14;;;;;;;1.23;0.60;;;24.60;93.70;;;;;;4214220;28;20142;-87
2022/10/30 11:29:34;;;;;;;0.60;0.60;;;24.60;92.30;;;;;;4216595;28;20083;-90
2022/10/30 11:32:02;;;;;;;0.60;0.60;;;25.00;92.90;;;;;;4228727;28;20223;-86
2022/10/30 11:34:30;;;;;;;1.85;0.60;;;25.20;90.90;;;;;;4218190;28;20097;-87
2022/10/30 11:36:52;;;;;;;1.23;0.60;;;25.50;91.80;;;;;;4230890;28;20067;-87
2022/10/30 11:39:20;;;;;;;0.50;0.50;;;25.50;90.70;;;;;;4229813;28;20081;-87
2022/10/30 11:41:40;;;;;;;1.27;0.50;;;25.00;90.70;;;;;;4229004;28;20069;-87
2022/10/30 11:44:00;;;;;;;1.55;0.50;;;25.30;91.00;;;;;;4229702;28;20047;-87
2022/10/30 11:46:22;;;;;;;1.55;0.50;;;25.50;92.20;;;;;;4229510;28;20059;-86
2022/10/30 11:48:45;;;;;;;0.50;0.50;;;25.50;90.80;;;;;;4227198;28;20043;-86
2022/10/30 11:51:06;;;;;;;0.52;0.50;;;26.00;92.90;;;;;;4223060;28;20044;-87
2022/10/30 11:53:33;;;;;;;0.43;0.43;;;26.00;91.10;;;;;;4215020;28;20090;-87
2022/10/30 11:55:53;;;;;;;1.08;0.45;;;26.20;91.10;;;;;;4222918;28;20134;-87
2022/10/30 11:58:32;;;;;;;3.13;0.50;;;26.40;91.20;;;;;;4216561;28;20148;-87
2022/10/30 12:01:28;;;;;;;1.60;0.50;;;26.20;91.40;;;;;;4225708;28;20366;-87
2022/10/30 12:03:50;;;;;;;0.50;0.50;;;26.40;89.90;;;;;;4214242;28;20043;-87
2022/10/30 12:06:20;;;;;;;3.28;0.80;;;26.10;90.50;;;;;;4228880;28;20039;-87
2022/10/30 12:08:40;;;;;;;0.50;0.50;;;25.70;90.50;;;;;;4230942;28;20456;-87
2022/10/30 12:11:02;;;;;;;0.60;0.50;;;26.10;91.90;;;;;;4223300;28;20071;-86
2022/10/30 12:13:24;;;;;;;1.23;0.50;;;25.90;88.30;;;;;;4224492;28;20123;-87
2022/10/30 12:15:47;;;;;;;1.65;0.65;;;25.70;90.40;;;;;;4227983;28;20084;-87
2022/10/30 12:18:14;;;;;;;0.75;0.50;;;25.70;90.00;;;;;;4233197;28;20070;-86
2022/10/30 12:20:37;;;;;;;2.33;0.60;;;25.80;88.20;;;;;;4219093;28;20043;-86
2022/10/30 12:22:56;;;;;;;1.38;0.50;;;25.70;87.30;;;;;;4229810;28;20081;-86
2022/10/30 12:25:29;;;;;;;1.25;0.50;;;25.60;88.30;;;;;;4219435;28;20373;-84
2022/10/30 12:27:57;;;;;;;0.60;0.60;;;25.60;87.80;;;;;;4231967;28;20042;-83
2022/10/30 12:30:19;;;;;;;0.65;0.65;;;25.40;87.70;;;;;;4224841;28;20078;-83
2022/10/30 12:33:04;;;;;;;0.50;0.50;;;25.60;88.40;;;;;;4220252;28;20047;-84
2022/10/30 12:35:45;;;;;;;2.78;0.60;;;25.20;88.00;;;;;;4233399;28;20089;-84